Current Weather

Al Ain Intl

Al Ain Intl, United Arab Emirates (OMAL)

Report from: Thursday, July 18, 2024 2:00 PM UTC
Current time: Thursday, July 18, 2024 2:09 PM UTC

Nearby weather – Weather history – Daily summaries
Weather forecast

Temperature43.0°C (109.4°F)
Heat index44.4°C (112.0°F)
Dew point16.0°C (60.8°F)
Winds 6 kts (3.1 m/s, 6.9 mph) West (280°)
Visibility5.6 mi. (9 km)
Altimeter29.41 in.Hg (996 mB)
Relative humidity21 %
Density altitude3,954 ft. (1,205 m)
Remarks No significant changes expected in the next two hours
Flight conditions Visual Meteorological Conditions
Raw dataOMAL 181400Z 28006KT 9000 NSC 43/16 Q0996 NOSIG
An error has occurred. This application may no longer respond until reloaded. Reload 🗙